createdAt,value
2023-05-17T00:00:03.374Z,7.87
2023-05-17T00:02:32.678Z,7.85
2023-05-17T00:05:01.761Z,7.83
2023-05-17T00:07:29.443Z,7.81
2023-05-17T00:09:57.342Z,7.78
2023-05-17T00:12:24.899Z,7.76
2023-05-17T00:14:53.495Z,7.74
2023-05-17T00:17:25.780Z,7.71
2023-05-17T00:19:53.529Z,7.70
2023-05-17T00:22:22.922Z,7.67
2023-05-17T00:24:50.561Z,7.64
2023-05-17T00:27:18.407Z,7.62
2023-05-17T00:29:46.003Z,7.60
2023-05-17T00:32:13.839Z,7.57
2023-05-17T00:34:41.516Z,7.55
2023-05-17T00:37:09.803Z,7.53
2023-05-17T00:39:38.746Z,7.50
2023-05-17T00:42:07.271Z,7.48
2023-05-17T00:44:34.981Z,7.46
2023-05-17T00:47:03.965Z,7.44
2023-05-17T00:49:34.562Z,7.42
2023-05-17T00:52:03.268Z,7.41
2023-05-17T00:54:32.314Z,7.38
2023-05-17T00:57:04.165Z,7.37
2023-05-17T00:59:35.285Z,7.35
2023-05-17T01:02:05.897Z,7.33
2023-05-17T01:04:38.927Z,7.30
2023-05-17T01:07:09.717Z,7.29
2023-05-17T01:09:39.112Z,7.27
2023-05-17T01:12:16.627Z,7.25
2023-05-17T01:14:52.338Z,7.22
2023-05-17T01:17:29.825Z,7.21
2023-05-17T01:20:07.442Z,7.19
2023-05-17T01:22:47.956Z,7.19
2023-05-17T01:25:30.301Z,7.17
2023-05-17T01:28:02.873Z,7.15
2023-05-17T01:30:32.965Z,7.14
2023-05-17T01:33:03.564Z,7.13
2023-05-17T01:35:31.659Z,7.12
2023-05-17T01:38:00.371Z,7.11
2023-05-17T01:43:32.806Z,7.08
2023-05-17T01:46:08.567Z,7.07
2023-05-17T01:48:40.906Z,7.05
2023-05-17T01:51:14.473Z,7.04
2023-05-17T01:53:49.004Z,7.03
2023-05-17T01:56:22.145Z,7.01
2023-05-17T01:58:53.995Z,7.00
2023-05-17T02:04:16.910Z,6.97
2023-05-17T02:06:44.793Z,6.97
2023-05-17T02:09:12.665Z,6.96
2023-05-17T02:11:40.325Z,6.96
2023-05-17T02:14:09.798Z,6.96
2023-05-17T02:21:16.319Z,6.93
2023-05-17T02:23:44.253Z,6.92
2023-05-17T02:26:12.082Z,6.90
2023-05-17T02:28:40.341Z,6.90
2023-05-17T02:31:11.810Z,6.89
2023-05-17T02:33:40.633Z,6.89
2023-05-17T02:36:08.693Z,6.90
2023-05-17T02:39:02.159Z,6.90
2023-05-17T02:41:32.593Z,6.88
2023-05-17T02:44:00.457Z,6.87
2023-05-17T02:46:29.798Z,6.87
2023-05-17T02:51:50.823Z,6.84
2023-05-17T02:54:18.572Z,6.82
2023-05-17T02:56:46.891Z,6.82
2023-05-17T02:59:15.788Z,6.80
2023-05-17T03:01:45.011Z,6.80
2023-05-17T03:04:13.362Z,6.80
2023-05-17T03:06:41.706Z,6.79
2023-05-17T03:09:09.756Z,6.79
2023-05-17T03:11:39.816Z,6.77
2023-05-17T03:14:14.592Z,6.75
2023-05-17T03:16:42.584Z,6.74
2023-05-17T03:19:11.948Z,6.72
2023-05-17T03:21:41.339Z,6.72
2023-05-17T03:24:09.333Z,6.69
2023-05-17T03:26:39.213Z,6.68
2023-05-17T03:29:09.048Z,6.67
2023-05-17T03:31:38.690Z,6.65
2023-05-17T03:34:06.388Z,6.63
2023-05-17T03:36:36.447Z,6.61
2023-05-17T03:39:04.219Z,6.59
2023-05-17T03:41:32.162Z,6.57
2023-05-17T03:44:01.362Z,6.57
2023-05-17T03:46:29.215Z,6.54
2023-05-17T03:48:57.255Z,6.51
2023-05-17T03:51:25.940Z,6.48
2023-05-17T03:54:02.841Z,6.45
2023-05-17T03:56:32.368Z,6.42
2023-05-17T03:59:00.146Z,6.38
2023-05-17T04:01:28.836Z,6.37
2023-05-17T04:03:56.515Z,6.34
2023-05-17T04:06:25.583Z,6.32
2023-05-17T04:08:55.733Z,6.31
2023-05-17T04:11:26.518Z,6.30
2023-05-17T04:13:54.716Z,6.28
2023-05-17T04:16:24.192Z,6.26
2023-05-17T04:18:54.168Z,6.24
2023-05-17T04:21:22.201Z,6.23
2023-05-17T04:23:52.790Z,6.24
2023-05-17T04:26:21.926Z,6.23
2023-05-17T04:28:50.584Z,6.23
2023-05-17T04:31:18.821Z,6.25
2023-05-17T04:33:50.857Z,6.27
2023-05-17T04:36:18.622Z,6.28
2023-05-17T04:38:46.399Z,6.31
2023-05-17T04:41:17.892Z,6.35
2023-05-17T04:43:49.857Z,6.37
2023-05-17T04:46:25.824Z,6.40
2023-05-17T04:48:56.276Z,6.42
2023-05-17T04:51:25.249Z,6.45
2023-05-17T04:53:54.809Z,6.46
2023-05-17T04:56:22.673Z,6.52
2023-05-17T05:01:43.984Z,6.65
2023-05-17T05:04:12.612Z,6.72
2023-05-17T05:06:43.507Z,6.78
2023-05-17T05:09:11.440Z,6.83
2023-05-17T05:11:40.838Z,6.88
2023-05-17T05:14:11.082Z,6.95
2023-05-17T05:16:42.782Z,7.02
2023-05-17T05:19:10.674Z,7.07
2023-05-17T05:21:42.810Z,7.18
2023-05-17T05:24:36.806Z,7.30
2023-05-17T05:27:08.955Z,7.39
2023-05-17T05:29:39.780Z,7.47
2023-05-17T05:32:09.806Z,7.57
2023-05-17T05:34:43.869Z,7.65
2023-05-17T05:37:14.433Z,7.74
2023-05-17T05:39:43.374Z,7.81
2023-05-17T05:42:11.595Z,7.87
2023-05-17T05:44:41.412Z,7.97
2023-05-17T05:47:10.222Z,8.03
2023-05-17T05:49:37.866Z,8.10
2023-05-17T05:52:05.811Z,8.14
2023-05-17T05:54:58.933Z,8.26
2023-05-17T05:57:28.806Z,8.30
2023-05-17T06:00:00.797Z,8.37
2023-05-17T06:02:41.204Z,8.45
2023-05-17T06:05:09.793Z,8.53
2023-05-17T06:07:38.217Z,8.59
2023-05-17T06:10:06.707Z,8.70
2023-05-17T06:12:36.796Z,8.79
2023-05-17T06:15:07.744Z,8.91
2023-05-17T06:17:35.442Z,9.00
2023-05-17T06:20:03.425Z,9.09
2023-05-17T06:22:31.001Z,9.21
2023-05-17T06:24:59.081Z,9.34
2023-05-17T06:27:26.726Z,9.42
2023-05-17T06:29:55.192Z,9.41
2023-05-17T06:32:25.949Z,9.45
2023-05-17T06:34:53.665Z,9.48
2023-05-17T06:37:21.810Z,9.53
2023-05-17T06:39:55.390Z,9.64
2023-05-17T06:42:27.398Z,9.74
2023-05-17T06:44:55.024Z,9.87
2023-05-17T06:47:23.831Z,9.96
2023-05-17T06:49:55.109Z,10.12
2023-05-17T06:52:23.727Z,10.23
2023-05-17T06:54:51.304Z,10.34
2023-05-17T06:57:20.523Z,10.45
2023-05-17T06:59:48.334Z,10.52
2023-05-17T07:02:15.975Z,10.56
2023-05-17T07:04:43.947Z,10.57
2023-05-17T07:07:13.120Z,10.58
2023-05-17T07:12:32.852Z,10.46
2023-05-17T07:15:00.833Z,10.37
2023-05-17T07:17:28.942Z,10.36
2023-05-17T07:19:57.470Z,10.41
2023-05-17T07:22:26.742Z,10.50
2023-05-17T07:24:54.789Z,10.54
2023-05-17T07:27:22.461Z,10.52
2023-05-17T07:29:52.301Z,10.56
2023-05-17T07:32:20.024Z,10.72
2023-05-17T07:34:47.661Z,10.78
2023-05-17T07:37:16.816Z,10.91
2023-05-17T07:39:45.952Z,11.08
2023-05-17T07:42:13.824Z,11.15
2023-05-17T07:44:41.413Z,11.09
2023-05-17T07:47:09.246Z,11.14
2023-05-17T07:49:39.048Z,11.24
2023-05-17T07:52:06.892Z,11.37
2023-05-17T07:54:35.818Z,11.51
2023-05-17T07:57:07.189Z,11.69
2023-05-17T07:59:35.812Z,11.87
2023-05-17T08:02:03.584Z,11.97
2023-05-17T08:04:31.308Z,11.97
2023-05-17T08:07:00.861Z,11.97
2023-05-17T08:09:28.816Z,11.95
2023-05-17T08:11:57.416Z,11.95
2023-05-17T08:14:27.117Z,11.98
2023-05-17T08:16:56.815Z,11.94
2023-05-17T08:19:30.118Z,11.87
2023-05-17T08:21:58.768Z,11.82
2023-05-17T08:24:26.392Z,11.70
2023-05-17T08:29:51.868Z,11.60
2023-05-17T08:33:09.888Z,11.49
2023-05-17T08:35:41.806Z,11.41
2023-05-17T08:38:09.487Z,11.40
2023-05-17T08:43:31.923Z,11.43
2023-05-17T08:46:04.122Z,11.41
2023-05-17T08:48:59.889Z,11.31
2023-05-17T08:51:29.921Z,11.28
2023-05-17T08:53:57.981Z,11.25
2023-05-17T08:56:27.797Z,11.32
2023-05-17T08:58:58.188Z,11.34
2023-05-17T09:01:29.909Z,11.35
2023-05-17T09:04:01.275Z,11.32
2023-05-17T09:06:31.842Z,11.27
2023-05-17T09:09:01.749Z,11.28
2023-05-17T09:11:31.853Z,11.32
2023-05-17T09:14:00.824Z,11.39
2023-05-17T09:16:58.386Z,11.49
2023-05-17T09:19:26.168Z,11.57
2023-05-17T09:21:55.098Z,11.60
2023-05-17T09:24:31.833Z,11.65
2023-05-17T09:27:05.666Z,11.68
2023-05-17T09:29:33.987Z,11.72
2023-05-17T09:32:15.512Z,11.81
2023-05-17T09:34:44.287Z,11.93
2023-05-17T09:37:18.079Z,11.98
2023-05-17T09:39:47.994Z,11.98
2023-05-17T09:42:17.640Z,12.04
2023-05-17T09:44:50.921Z,12.04
2023-05-17T09:47:25.888Z,12.05
2023-05-17T09:49:54.192Z,12.01
2023-05-17T09:52:22.353Z,12.02
2023-05-17T09:54:54.827Z,12.15
2023-05-17T09:57:22.793Z,12.35
2023-05-17T09:59:51.404Z,12.47
2023-05-17T10:02:23.152Z,12.53
2023-05-17T10:04:54.057Z,12.53
2023-05-17T10:07:22.745Z,12.51
2023-05-17T10:09:52.086Z,12.55
2023-05-17T10:12:25.419Z,12.65
2023-05-17T10:14:56.951Z,12.72
2023-05-17T10:17:26.590Z,12.76
2023-05-17T10:19:57.074Z,12.77
2023-05-17T10:22:24.805Z,12.86
2023-05-17T10:24:52.949Z,12.99
2023-05-17T10:27:21.881Z,13.06
2023-05-17T10:29:55.339Z,13.10
2023-05-17T10:32:29.989Z,13.15
2023-05-17T10:35:11.402Z,13.18
2023-05-17T10:37:42.072Z,13.22
2023-05-17T10:40:13.505Z,13.25
2023-05-17T10:42:43.353Z,13.20
2023-05-17T10:45:13.085Z,13.17
2023-05-17T10:47:42.423Z,13.24
2023-05-17T10:50:14.757Z,13.32
2023-05-17T10:52:48.845Z,13.36
2023-05-17T10:55:22.481Z,13.34
2023-05-17T10:58:16.492Z,13.33
2023-05-17T11:00:47.043Z,13.30
2023-05-17T11:03:17.284Z,13.21
2023-05-17T11:06:22.519Z,13.24
2023-05-17T11:09:14.782Z,13.21
2023-05-17T11:12:09.710Z,13.39
2023-05-17T11:14:54.283Z,13.55
2023-05-17T11:17:27.381Z,13.68
2023-05-17T11:20:03.299Z,13.82
2023-05-17T11:22:39.170Z,13.86
2023-05-17T11:25:09.901Z,13.82
2023-05-17T11:28:07.640Z,13.79
2023-05-17T11:30:35.492Z,13.78
2023-05-17T11:33:07.187Z,13.80
2023-05-17T11:35:42.075Z,13.79
2023-05-17T11:38:19.822Z,13.69
2023-05-17T11:40:51.814Z,13.61
2023-05-17T11:43:21.636Z,13.59
2023-05-17T11:45:53.131Z,13.58
2023-05-17T11:48:22.946Z,13.67
2023-05-17T11:50:52.497Z,13.78
2023-05-17T11:53:28.841Z,13.93
2023-05-17T11:56:01.036Z,13.97
2023-05-17T11:58:32.878Z,13.96
2023-05-17T12:01:00.435Z,13.96
2023-05-17T12:03:29.925Z,13.90
2023-05-17T12:06:05.218Z,13.86
2023-05-17T12:11:27.782Z,14.02
2023-05-17T12:13:56.377Z,14.07
2023-05-17T12:16:25.732Z,14.09
2023-05-17T12:18:53.735Z,14.13
2023-05-17T12:21:22.231Z,14.21
2023-05-17T12:23:53.426Z,14.24
2023-05-17T12:26:22.923Z,14.32
2023-05-17T12:28:54.942Z,14.40
2023-05-17T12:31:29.161Z,14.44
2023-05-17T12:33:59.268Z,14.47
2023-05-17T12:36:29.644Z,14.51
2023-05-17T12:39:00.861Z,14.52
2023-05-17T12:41:30.227Z,14.54
2023-05-17T12:44:13.893Z,14.51
2023-05-17T12:46:43.727Z,14.53
2023-05-17T12:49:12.718Z,14.58
2023-05-17T12:51:44.813Z,14.66
2023-05-17T12:54:15.927Z,14.69
2023-05-17T12:56:44.511Z,14.69
2023-05-17T12:59:13.947Z,14.72
2023-05-17T13:01:45.467Z,14.75
2023-05-17T13:04:14.320Z,14.79
2023-05-17T13:06:46.701Z,14.76
2023-05-17T13:09:16.497Z,14.72
2023-05-17T13:11:44.812Z,14.72
2023-05-17T13:14:13.448Z,14.82
2023-05-17T13:16:42.999Z,14.89
2023-05-17T13:19:14.681Z,15.06
2023-05-17T13:21:45.877Z,15.16
2023-05-17T13:24:13.508Z,15.20
2023-05-17T13:26:42.999Z,15.26
2023-05-17T13:29:10.977Z,15.28
2023-05-17T13:31:38.823Z,15.18
2023-05-17T13:34:06.781Z,15.15
2023-05-17T13:36:34.507Z,15.23
2023-05-17T13:39:02.822Z,15.36
2023-05-17T13:41:32.333Z,15.45
2023-05-17T13:44:01.912Z,15.54
2023-05-17T13:46:29.685Z,15.55
2023-05-17T13:48:57.501Z,15.65
2023-05-17T13:51:27.735Z,15.86
2023-05-17T13:53:55.848Z,15.98
2023-05-17T13:56:23.843Z,16.03
2023-05-17T13:58:51.707Z,16.10
2023-05-17T14:01:21.184Z,16.22
2023-05-17T14:03:49.864Z,16.31
2023-05-17T14:06:18.708Z,16.42
2023-05-17T14:08:48.308Z,16.56
2023-05-17T14:11:16.097Z,16.59
2023-05-17T14:13:43.963Z,16.40
2023-05-17T14:16:13.357Z,16.23
2023-05-17T14:18:42.976Z,16.06
2023-05-17T14:21:11.919Z,15.92
2023-05-17T14:23:40.216Z,15.88
2023-05-17T14:26:09.216Z,15.94
2023-05-17T14:28:38.279Z,16.10
2023-05-17T14:31:07.330Z,16.35
2023-05-17T14:33:35.363Z,16.58
2023-05-17T14:36:06.107Z,16.81
2023-05-17T14:38:34.664Z,17.04
2023-05-17T14:41:03.139Z,17.27
2023-05-17T14:43:31.037Z,17.45
2023-05-17T14:45:58.845Z,17.49
2023-05-17T14:48:26.668Z,17.54
2023-05-17T14:50:54.850Z,17.51
2023-05-17T14:53:29.002Z,17.35
2023-05-17T14:55:58.846Z,17.25
2023-05-17T14:58:26.512Z,17.21
2023-05-17T15:01:06.201Z,17.16
2023-05-17T15:03:35.861Z,17.18
2023-05-17T15:06:07.517Z,17.23
2023-05-17T15:08:40.839Z,17.21
2023-05-17T15:11:10.669Z,17.24
2023-05-17T15:14:05.840Z,17.16
2023-05-17T15:16:34.281Z,17.14
2023-05-17T15:19:03.936Z,17.11
2023-05-17T15:21:31.994Z,17.13
2023-05-17T15:24:05.156Z,16.95
2023-05-17T15:26:33.455Z,16.76
2023-05-17T15:29:01.057Z,16.58
2023-05-17T15:31:29.435Z,16.47
2023-05-17T15:33:57.550Z,16.35
2023-05-17T15:36:25.540Z,16.23
2023-05-17T15:38:53.284Z,16.14
2023-05-17T15:41:29.554Z,16.11
2023-05-17T15:43:58.399Z,16.03
2023-05-17T15:46:26.566Z,16.03
2023-05-17T15:48:56.260Z,16.03
2023-05-17T15:51:23.925Z,16.03
2023-05-17T15:53:52.358Z,15.98
2023-05-17T15:56:24.074Z,15.87
2023-05-17T15:58:53.135Z,15.75
2023-05-17T16:01:20.767Z,15.67
2023-05-17T16:03:50.884Z,15.62
2023-05-17T16:06:19.537Z,15.56
2023-05-17T16:08:47.184Z,15.50
2023-05-17T16:11:14.885Z,15.47
2023-05-17T16:13:43.924Z,15.37
2023-05-17T16:16:14.426Z,15.29
2023-05-17T16:18:42.129Z,15.17
2023-05-17T16:21:09.770Z,15.05
2023-05-17T16:23:38.269Z,14.92
2023-05-17T16:26:06.840Z,14.80
2023-05-17T16:28:36.761Z,14.71
2023-05-17T16:31:05.899Z,14.65
2023-05-17T16:33:35.423Z,14.58
2023-05-17T16:36:03.960Z,14.49
2023-05-17T16:38:31.753Z,14.44
2023-05-17T16:41:02.990Z,14.36
2023-05-17T16:43:30.874Z,14.31
2023-05-17T16:45:59.423Z,14.22
2023-05-17T16:48:27.334Z,14.13
2023-05-17T16:50:58.170Z,14.07
2023-05-17T16:53:28.995Z,13.98
2023-05-17T16:55:58.202Z,13.93
2023-05-17T16:58:26.670Z,13.83
2023-05-17T17:00:54.347Z,13.80
2023-05-17T17:03:22.013Z,13.77
2023-05-17T17:05:50.346Z,13.74
2023-05-17T17:08:20.841Z,13.74
2023-05-17T17:10:49.390Z,13.75
2023-05-17T17:13:17.377Z,13.76
2023-05-17T17:15:45.461Z,13.70
2023-05-17T17:18:13.096Z,13.71
2023-05-17T17:20:40.966Z,13.68
2023-05-17T17:23:08.599Z,13.63
2023-05-17T17:25:37.850Z,13.62
2023-05-17T17:28:11.672Z,13.62
2023-05-17T17:30:39.950Z,13.62
2023-05-17T17:33:09.452Z,13.54
2023-05-17T17:35:37.307Z,13.51
2023-05-17T17:38:04.909Z,13.47
2023-05-17T17:40:32.850Z,13.41
2023-05-17T17:43:01.969Z,13.35
2023-05-17T17:45:30.338Z,13.29
2023-05-17T17:47:58.040Z,13.24
2023-05-17T17:50:26.933Z,13.25
2023-05-17T17:52:54.567Z,13.23
2023-05-17T17:55:22.364Z,13.20
2023-05-17T17:57:51.742Z,13.15
2023-05-17T18:00:22.227Z,13.12
2023-05-17T18:02:50.451Z,13.12
2023-05-17T18:05:18.880Z,13.08
2023-05-17T18:07:46.530Z,13.06
2023-05-17T18:10:14.178Z,13.02
2023-05-17T18:12:41.802Z,13.00
2023-05-17T18:15:10.787Z,12.99
2023-05-17T18:17:42.173Z,12.96
2023-05-17T18:20:10.840Z,12.91
2023-05-17T18:22:40.050Z,12.90
2023-05-17T18:25:08.118Z,12.84
2023-05-17T18:27:36.703Z,12.83
2023-05-17T18:30:04.536Z,12.71
2023-05-17T18:32:32.509Z,12.70
2023-05-17T18:35:01.645Z,12.64
2023-05-17T18:37:30.364Z,12.62
2023-05-17T18:39:59.630Z,12.55
2023-05-17T18:42:27.316Z,12.48
2023-05-17T18:44:54.967Z,12.41
2023-05-17T18:47:23.337Z,12.37
2023-05-17T18:49:51.834Z,12.36
2023-05-17T18:52:20.779Z,12.32
2023-05-17T18:54:51.669Z,12.29
2023-05-17T18:57:21.251Z,12.27
2023-05-17T18:59:48.872Z,12.24
2023-05-17T19:02:16.467Z,12.21
2023-05-17T19:04:45.007Z,12.17
2023-05-17T19:07:12.687Z,12.12
2023-05-17T19:10:06.875Z,12.07
2023-05-17T19:12:36.166Z,11.99
2023-05-17T19:15:04.089Z,11.93
2023-05-17T19:17:31.886Z,11.88
2023-05-17T19:20:00.319Z,11.82
2023-05-17T19:22:27.985Z,11.78
2023-05-17T19:24:57.759Z,11.72
2023-05-17T19:27:27.470Z,11.69
2023-05-17T19:29:55.031Z,11.66
2023-05-17T19:32:22.949Z,11.61
2023-05-17T19:34:51.266Z,11.57
2023-05-17T19:37:18.957Z,11.52
2023-05-17T19:39:46.547Z,11.48
2023-05-17T19:42:15.466Z,11.43
2023-05-17T19:44:43.874Z,11.38
2023-05-17T19:47:11.457Z,11.34
2023-05-17T19:49:39.197Z,11.28
2023-05-17T19:52:13.871Z,11.23
2023-05-17T19:55:05.828Z,11.17
2023-05-17T19:57:34.914Z,11.11
2023-05-17T20:00:03.872Z,11.06
2023-05-17T20:02:32.061Z,11.01
2023-05-17T20:05:02.130Z,10.96
2023-05-17T20:07:29.954Z,10.92
2023-05-17T20:09:58.382Z,10.87
2023-05-17T20:12:26.530Z,10.83
2023-05-17T20:15:22.693Z,10.78
2023-05-17T20:17:50.563Z,10.72
2023-05-17T20:20:18.385Z,10.68
2023-05-17T20:22:46.667Z,10.63
2023-05-17T20:25:14.290Z,10.58
2023-05-17T20:27:42.871Z,10.53
2023-05-17T20:30:12.193Z,10.46
2023-05-17T20:32:41.634Z,10.41
2023-05-17T20:35:09.754Z,10.36
2023-05-17T20:38:02.826Z,10.30
2023-05-17T20:40:30.834Z,10.25
2023-05-17T20:42:58.834Z,10.21
2023-05-17T20:45:29.659Z,10.15
2023-05-17T20:47:58.739Z,10.11
2023-05-17T20:50:26.579Z,10.07
2023-05-17T20:52:54.170Z,10.03
2023-05-17T20:55:22.943Z,10.00
2023-05-17T20:57:52.248Z,9.94
2023-05-17T21:00:21.116Z,9.90
2023-05-17T21:02:48.874Z,9.87
2023-05-17T21:05:17.884Z,9.83
2023-05-17T21:07:46.556Z,9.79
2023-05-17T21:10:14.255Z,9.77
2023-05-17T21:12:41.885Z,9.73
2023-05-17T21:15:17.161Z,9.70
2023-05-17T21:17:49.291Z,9.66
2023-05-17T21:20:18.868Z,9.63
2023-05-17T21:22:46.472Z,9.61
2023-05-17T21:25:14.095Z,9.58
2023-05-17T21:27:42.388Z,9.54
2023-05-17T21:30:11.033Z,9.48
2023-05-17T21:32:38.892Z,9.44
2023-05-17T21:35:08.964Z,9.39
2023-05-17T21:37:40.007Z,9.35
2023-05-17T21:40:09.989Z,9.32
2023-05-17T21:42:37.696Z,9.28
2023-05-17T21:45:06.420Z,9.23
2023-05-17T21:47:35.849Z,9.19
2023-05-17T21:50:04.044Z,9.14
2023-05-17T21:52:32.073Z,9.12
2023-05-17T21:55:01.018Z,9.08
2023-05-17T21:57:28.631Z,9.05
2023-05-17T21:59:56.362Z,9.03
2023-05-17T22:02:24.452Z,8.98
2023-05-17T22:04:52.259Z,8.95
2023-05-17T22:07:19.943Z,8.92
2023-05-17T22:09:48.087Z,8.88
2023-05-17T22:12:25.239Z,8.82
2023-05-17T22:14:53.647Z,8.75
2023-05-17T22:17:35.231Z,8.71
2023-05-17T22:20:12.056Z,8.65
2023-05-17T22:22:39.778Z,8.61
2023-05-17T22:25:08.875Z,8.56
2023-05-17T22:27:37.965Z,8.52
2023-05-17T22:30:07.371Z,8.47
2023-05-17T22:32:35.054Z,8.43
2023-05-17T22:35:02.775Z,8.38
2023-05-17T22:37:32.813Z,8.33
2023-05-17T22:40:00.900Z,8.28
2023-05-17T22:42:28.581Z,8.24
2023-05-17T22:44:57.573Z,8.20
2023-05-17T22:47:26.564Z,8.16
2023-05-17T22:49:54.332Z,8.12
2023-05-17T22:52:22.081Z,8.09
2023-05-17T22:54:50.478Z,8.05
2023-05-17T22:57:18.184Z,8.00
2023-05-17T22:59:45.975Z,7.95
2023-05-17T23:02:14.917Z,7.90
2023-05-17T23:04:45.811Z,7.85
2023-05-17T23:07:14.899Z,7.77
2023-05-17T23:09:42.673Z,7.70
2023-05-17T23:12:14.174Z,7.62
2023-05-17T23:14:42.421Z,7.55
2023-05-17T23:17:10.353Z,7.48
2023-05-17T23:19:40.548Z,7.41
2023-05-17T23:22:08.393Z,7.36
2023-05-17T23:24:38.483Z,7.30
2023-05-17T23:27:09.626Z,7.25
2023-05-17T23:29:37.342Z,7.20
2023-05-17T23:32:05.288Z,7.17
2023-05-17T23:34:33.002Z,7.13
2023-05-17T23:37:02.176Z,7.09
2023-05-17T23:39:29.816Z,7.06
2023-05-17T23:41:59.016Z,7.01
2023-05-17T23:44:27.373Z,6.96
2023-05-17T23:46:56.131Z,6.93
2023-05-17T23:49:23.870Z,6.87
2023-05-17T23:51:51.992Z,6.82
2023-05-17T23:54:21.870Z,6.78
2023-05-17T23:56:49.703Z,6.76
2023-05-17T23:59:17.312Z,6.72
